Time;durP1;ratioP1;P1;durP2;ratioP2;P2;SDS_P1;SDS_P2;PMS_P1;PMS_P2;Temp;Humidity;BMP_temperature;BMP_pressure;BME280_temperature;BME280_humidity;BME280_pressure;Samples;Min_cycle;Max_cycle;Signal;HPM_P1;HPM_P2
2023/07/18 00:01:21;;;;;;;4.30;3.90;;;26.90;99.90;;;;;;4963947;28;20233;-76
2023/07/18 00:03:48;;;;;;;3.92;3.63;;;26.90;99.90;;;;;;4965624;28;20606;-75
2023/07/18 00:06:18;;;;;;;7.20;4.57;;;26.90;99.90;;;;;;4962165;28;20305;-74
2023/07/18 00:08:45;;;;;;;4.85;4.43;;;26.80;99.90;;;;;;4957926;28;20300;-75
2023/07/18 00:11:12;;;;;;;4.40;4.00;;;26.80;99.90;;;;;;4963879;28;20198;-74
2023/07/18 00:13:39;;;;;;;4.93;4.43;;;26.70;99.90;;;;;;4961184;28;20327;-74
2023/07/18 00:16:05;;;;;;;5.18;4.68;;;26.70;99.90;;;;;;4961504;28;20237;-74
2023/07/18 00:18:32;;;;;;;4.82;4.32;;;26.70;99.90;;;;;;4959030;28;20339;-75
2023/07/18 00:20:59;;;;;;;4.57;4.15;;;26.70;99.90;;;;;;4961407;28;20307;-75
2023/07/18 00:23:28;;;;;;;4.25;3.90;;;26.60;99.90;;;;;;4962685;28;20312;-78
2023/07/18 00:25:55;;;;;;;4.68;3.95;;;26.60;99.90;;;;;;4960604;28;20317;-74
2023/07/18 00:28:23;;;;;;;5.05;4.40;;;26.60;99.90;;;;;;4962629;28;20201;-75
2023/07/18 00:30:50;;;;;;;4.30;3.90;;;26.50;99.90;;;;;;4962918;28;20755;-77
2023/07/18 00:33:17;;;;;;;4.72;4.32;;;26.50;99.90;;;;;;4961079;28;20222;-76
2023/07/18 00:35:44;;;;;;;4.63;4.18;;;26.50;99.90;;;;;;4961427;28;20205;-74
2023/07/18 00:38:11;;;;;;;5.65;4.20;;;26.50;99.90;;;;;;4959771;28;20941;-76
2023/07/18 00:40:40;;;;;;;4.75;4.28;;;26.50;99.90;;;;;;4958930;28;20205;-74
2023/07/18 00:43:13;;;;;;;6.00;4.55;;;26.50;99.90;;;;;;4961303;28;20229;-78
2023/07/18 00:45:42;;;;;;;5.00;3.90;;;26.40;99.90;;;;;;4958752;28;20317;-74
2023/07/18 00:48:10;;;;;;;6.20;4.60;;;26.40;99.90;;;;;;4961937;28;20637;-75
2023/07/18 00:50:37;;;;;;;4.72;4.32;;;26.40;99.90;;;;;;4959116;28;20252;-77
2023/07/18 00:53:04;;;;;;;6.80;4.35;;;26.30;99.90;;;;;;4956811;28;20253;-75
2023/07/18 00:55:33;;;;;;;4.40;3.97;;;26.30;99.90;;;;;;4963554;28;20210;-73
2023/07/18 00:58:03;;;;;;;4.72;4.22;;;26.20;99.90;;;;;;4957716;28;20289;-76
2023/07/18 01:00:30;;;;;;;4.68;4.28;;;26.20;99.90;;;;;;4960188;28;20703;-74
2023/07/18 01:02:57;;;;;;;5.95;4.38;;;26.20;99.90;;;;;;4960944;28;20233;-75
2023/07/18 01:05:24;;;;;;;5.75;4.57;;;26.30;99.90;;;;;;4959206;28;20952;-74
2023/07/18 01:07:51;;;;;;;5.03;4.53;;;26.30;99.90;;;;;;4959540;28;20233;-74
2023/07/18 01:10:23;;;;;;;5.45;4.68;;;26.30;99.90;;;;;;4958763;28;20210;-74
2023/07/18 01:12:50;;;;;;;5.40;4.55;;;26.30;99.90;;;;;;4961501;28;20233;-76
2023/07/18 01:15:19;;;;;;;5.35;4.80;;;26.30;99.90;;;;;;4961178;28;20292;-74
2023/07/18 01:17:47;;;;;;;5.22;4.72;;;26.30;99.90;;;;;;4958938;28;20689;-74
2023/07/18 01:20:18;;;;;;;4.95;4.45;;;26.20;99.90;;;;;;4957392;28;20312;-74
2023/07/18 01:22:49;;;;;;;4.75;4.25;;;26.20;99.90;;;;;;4956145;28;20218;-74
2023/07/18 01:25:17;;;;;;;9.68;4.45;;;26.20;99.90;;;;;;4960079;28;20207;-75
2023/07/18 01:27:44;;;;;;;4.53;4.10;;;26.20;99.90;;;;;;4958700;28;20204;-75
2023/07/18 01:30:12;;;;;;;5.68;4.95;;;26.20;99.90;;;;;;4961130;28;20233;-74
2023/07/18 01:32:39;;;;;;;5.68;4.70;;;26.20;99.90;;;;;;4954240;28;20198;-76
2023/07/18 01:35:08;;;;;;;5.00;4.50;;;26.20;99.90;;;;;;4961315;28;20201;-74
2023/07/18 01:37:37;;;;;;;5.80;4.90;;;26.10;99.90;;;;;;4962011;28;20256;-74
2023/07/18 01:40:07;;;;;;;6.78;4.93;;;26.10;99.90;;;;;;4960555;28;20210;-76
2023/07/18 01:42:35;;;;;;;5.20;4.70;;;26.10;99.90;;;;;;4957432;28;20247;-75
2023/07/18 01:45:03;;;;;;;5.28;4.85;;;26.10;99.90;;;;;;4959752;28;20197;-75
2023/07/18 01:47:31;;;;;;;5.95;4.53;;;26.10;99.90;;;;;;4957946;28;20372;-76
2023/07/18 01:49:58;;;;;;;5.28;4.80;;;26.00;99.90;;;;;;4960138;28;20213;-75
2023/07/18 01:52:27;;;;;;;4.90;4.05;;;26.00;99.90;;;;;;4963996;28;20207;-77
2023/07/18 01:54:54;;;;;;;5.10;4.60;;;26.00;99.90;;;;;;4967463;28;20288;-74
2023/07/18 01:57:23;;;;;;;5.60;4.57;;;26.00;99.90;;;;;;4960389;28;20229;-76
2023/07/18 01:59:50;;;;;;;5.10;4.60;;;26.00;99.90;;;;;;4962616;28;20209;-74
2023/07/18 02:02:17;;;;;;;5.57;5.07;;;25.90;99.90;;;;;;4954874;28;20221;-76
2023/07/18 02:04:44;;;;;;;5.82;5.30;;;25.90;99.90;;;;;;4958935;28;20292;-75
2023/07/18 02:07:11;;;;;;;5.63;4.63;;;25.90;99.90;;;;;;4960746;28;20280;-76
2023/07/18 02:09:38;;;;;;;4.65;4.25;;;25.90;99.90;;;;;;4959438;28;20684;-74
2023/07/18 02:12:06;;;;;;;4.45;4.05;;;25.90;99.90;;;;;;4955832;28;20680;-74
2023/07/18 02:14:36;;;;;;;5.25;4.68;;;25.80;99.90;;;;;;4960202;28;20249;-75
2023/07/18 02:17:03;;;;;;;5.43;4.82;;;25.80;99.90;;;;;;4960751;28;20656;-74
2023/07/18 02:19:30;;;;;;;4.50;4.10;;;25.80;99.90;;;;;;4958498;28;20297;-74
2023/07/18 02:21:59;;;;;;;5.13;4.65;;;25.80;99.90;;;;;;4960340;28;20308;-74
2023/07/18 02:24:26;;;;;;;5.53;4.65;;;25.80;99.90;;;;;;4961529;28;20226;-75
2023/07/18 02:26:54;;;;;;;4.95;4.45;;;25.80;99.90;;;;;;4957493;28;20856;-75
2023/07/18 02:29:20;;;;;;;6.47;5.10;;;25.70;99.90;;;;;;4956744;28;20202;-74
2023/07/18 02:31:49;;;;;;;7.18;5.05;;;25.70;99.90;;;;;;4959623;28;20301;-74
2023/07/18 02:34:16;;;;;;;5.25;4.70;;;25.70;99.90;;;;;;4956938;28;20334;-74
2023/07/18 02:36:43;;;;;;;6.63;4.63;;;25.70;99.90;;;;;;4962019;28;20279;-73
2023/07/18 02:39:10;;;;;;;6.45;5.30;;;25.60;99.90;;;;;;4960863;28;20734;-74
2023/07/18 02:41:38;;;;;;;5.25;4.72;;;25.60;99.90;;;;;;4963020;28;20226;-73
2023/07/18 02:44:05;;;;;;;4.78;4.38;;;25.60;99.90;;;;;;4961229;28;20931;-74
2023/07/18 02:46:33;;;;;;;5.30;4.80;;;25.50;99.90;;;;;;4985350;23;20513;-76
2023/07/18 02:49:03;;;;;;;6.15;5.43;;;25.50;99.90;;;;;;4958686;28;20253;-76
2023/07/18 02:51:30;;;;;;;5.68;5.15;;;25.50;99.90;;;;;;4957156;28;20237;-76
2023/07/18 02:53:57;;;;;;;5.40;4.88;;;25.50;99.90;;;;;;4956699;28;20247;-76
2023/07/18 02:56:24;;;;;;;7.13;4.95;;;25.50;99.90;;;;;;4966334;28;20236;-76
2023/07/18 02:58:51;;;;;;;5.45;4.95;;;25.40;99.90;;;;;;4979299;28;20193;-76
2023/07/18 03:01:19;;;;;;;5.22;4.82;;;25.40;99.90;;;;;;4976678;28;20209;-76
2023/07/18 03:03:46;;;;;;;5.47;4.97;;;25.40;99.90;;;;;;4981482;28;20287;-76
2023/07/18 03:06:15;;;;;;;5.22;4.75;;;25.40;99.90;;;;;;4983709;28;20625;-76
2023/07/18 03:08:42;;;;;;;5.25;4.75;;;25.40;99.90;;;;;;4980471;28;20272;-76
2023/07/18 03:11:09;;;;;;;5.40;4.90;;;25.40;99.90;;;;;;4979481;28;20197;-76
2023/07/18 03:13:36;;;;;;;10.15;5.15;;;25.40;99.90;;;;;;4979899;28;20413;-76
2023/07/18 03:16:04;;;;;;;5.50;4.95;;;25.40;99.90;;;;;;4979248;28;20731;-77
2023/07/18 03:18:31;;;;;;;6.20;5.50;;;25.40;99.90;;;;;;4977627;28;20212;-76
2023/07/18 03:20:58;;;;;;;5.97;5.38;;;25.40;99.90;;;;;;4980702;28;20240;-76
2023/07/18 03:23:26;;;;;;;5.60;4.85;;;25.40;99.90;;;;;;4981607;28;20312;-76
2023/07/18 03:25:53;;;;;;;5.50;4.88;;;25.30;99.90;;;;;;4976956;28;20225;-77
2023/07/18 03:28:21;;;;;;;5.60;4.43;;;25.30;99.90;;;;;;4976619;28;20279;-77
2023/07/18 03:30:48;;;;;;;6.93;5.60;;;25.30;99.90;;;;;;4980056;28;20240;-76
2023/07/18 03:33:16;;;;;;;5.97;5.32;;;25.30;99.90;;;;;;4982528;28;20244;-76
2023/07/18 03:35:43;;;;;;;5.45;4.90;;;25.30;99.90;;;;;;4975343;28;20197;-76
2023/07/18 03:38:10;;;;;;;5.80;5.30;;;25.30;99.90;;;;;;4985241;28;20224;-76
2023/07/18 03:40:39;;;;;;;8.38;5.70;;;25.20;99.90;;;;;;4979233;28;20217;-77
2023/07/18 03:43:06;;;;;;;5.57;5.07;;;25.20;99.90;;;;;;4978844;28;20271;-76
2023/07/18 03:45:33;;;;;;;7.38;5.20;;;25.20;99.90;;;;;;4979257;28;20299;-76
2023/07/18 03:48:00;;;;;;;6.32;5.72;;;25.10;99.90;;;;;;4977758;28;20280;-76
2023/07/18 03:50:27;;;;;;;6.03;5.53;;;25.10;99.90;;;;;;4977618;28;20215;-76
2023/07/18 03:52:54;;;;;;;6.82;5.57;;;25.00;99.90;;;;;;4977536;28;20236;-76
2023/07/18 03:55:21;;;;;;;5.68;5.13;;;25.00;99.90;;;;;;4977916;28;20280;-76
2023/07/18 03:57:49;;;;;;;5.93;5.43;;;25.00;99.90;;;;;;4977420;28;20857;-76
2023/07/18 04:00:18;;;;;;;5.68;4.45;;;25.00;99.90;;;;;;4976839;28;20901;-77
2023/07/18 04:02:45;;;;;;;5.72;5.22;;;25.00;99.90;;;;;;4976988;28;20249;-75
2023/07/18 04:05:13;;;;;;;7.07;5.35;;;25.00;99.90;;;;;;4978891;28;20197;-76
2023/07/18 04:07:41;;;;;;;6.18;5.53;;;25.00;99.90;;;;;;4973556;28;20230;-76
2023/07/18 04:10:08;;;;;;;5.20;4.70;;;25.00;99.90;;;;;;4977483;28;20216;-76
2023/07/18 04:12:35;;;;;;;6.20;5.00;;;25.00;99.90;;;;;;4974954;28;20630;-76
2023/07/18 04:15:04;;;;;;;5.85;5.35;;;25.00;99.90;;;;;;4974286;28;20197;-76
2023/07/18 04:17:31;;;;;;;5.45;4.95;;;25.00;99.90;;;;;;4977769;28;20253;-76
2023/07/18 04:20:00;;;;;;;6.03;5.28;;;25.00;99.90;;;;;;4980685;28;20224;-76
2023/07/18 04:22:29;;;;;;;5.95;5.28;;;25.10;99.90;;;;;;4980606;28;20271;-76
2023/07/18 04:24:56;;;;;;;6.20;5.55;;;25.20;99.90;;;;;;4980591;28;20260;-76
2023/07/18 04:27:26;;;;;;;7.07;6.22;;;25.20;99.90;;;;;;4978084;28;20221;-76
2023/07/18 04:29:53;;;;;;;6.20;5.50;;;25.20;99.90;;;;;;4977859;28;20223;-76
2023/07/18 04:32:22;;;;;;;7.43;5.47;;;25.30;99.90;;;;;;4977684;28;20197;-76
2023/07/18 04:34:49;;;;;;;7.60;6.10;;;25.30;99.90;;;;;;4977765;28;20213;-76
2023/07/18 04:37:16;;;;;;;6.07;5.47;;;25.30;99.90;;;;;;4985267;28;20956;-76
2023/07/18 04:39:43;;;;;;;5.68;5.15;;;25.40;99.90;;;;;;4973816;28;20822;-76
2023/07/18 04:42:11;;;;;;;5.93;5.43;;;25.40;99.90;;;;;;4973512;28;20887;-76
2023/07/18 04:44:38;;;;;;;5.88;5.22;;;25.50;99.90;;;;;;4971516;28;20604;-76
2023/07/18 04:47:05;;;;;;;9.38;5.80;;;25.60;99.90;;;;;;4975299;28;20240;-76
2023/07/18 04:49:33;;;;;;;6.85;6.10;;;25.70;99.90;;;;;;4977931;28;20233;-77
2023/07/18 04:52:00;;;;;;;6.55;5.85;;;25.70;99.90;;;;;;4983020;28;20201;-76
2023/07/18 04:54:27;;;;;;;6.00;5.40;;;25.80;99.90;;;;;;4980174;28;20197;-76
2023/07/18 04:56:55;;;;;;;5.60;5.10;;;25.90;99.90;;;;;;4978803;28;20237;-76
2023/07/18 04:59:22;;;;;;;5.88;5.32;;;25.90;99.90;;;;;;4981993;28;20296;-77
2023/07/18 05:01:52;;;;;;;7.25;6.03;;;25.90;99.90;;;;;;4979186;28;20206;-76
2023/07/18 05:04:19;;;;;;;6.40;5.80;;;25.80;99.90;;;;;;4981694;28;20706;-77
2023/07/18 05:06:48;;;;;;;7.30;5.50;;;25.80;99.90;;;;;;4982053;28;20888;-77
2023/07/18 05:09:16;;;;;;;6.72;5.55;;;25.80;99.90;;;;;;4979114;28;20743;-77
2023/07/18 05:11:42;;;;;;;6.70;5.95;;;25.90;99.90;;;;;;4984443;28;20221;-77
2023/07/18 05:14:09;;;;;;;6.65;5.93;;;25.90;99.90;;;;;;4976055;28;20197;-76
2023/07/18 05:16:36;;;;;;;6.20;5.30;;;25.90;99.90;;;;;;4980689;28;20264;-77
2023/07/18 05:19:03;;;;;;;7.40;6.18;;;25.90;99.90;;;;;;4978781;28;20284;-76
2023/07/18 05:21:30;;;;;;;6.60;5.90;;;25.90;99.90;;;;;;4976713;28;20205;-77
2023/07/18 05:23:59;;;;;;;6.22;5.32;;;25.90;99.90;;;;;;4978644;28;20233;-77
2023/07/18 05:26:26;;;;;;;6.32;5.72;;;25.90;99.90;;;;;;4981107;28;20280;-77
2023/07/18 05:28:53;;;;;;;8.57;5.70;;;25.80;99.90;;;;;;4977442;28;20288;-76
2023/07/18 05:31:20;;;;;;;8.35;5.70;;;25.90;99.90;;;;;;4977295;28;20823;-77
2023/07/18 05:33:47;;;;;;;7.15;5.47;;;26.10;99.90;;;;;;4979256;28;20197;-77
2023/07/18 05:36:15;;;;;;;6.13;5.63;;;26.20;99.90;;;;;;4971421;28;21035;-75
2023/07/18 05:38:42;;;;;;;6.75;5.72;;;26.30;99.90;;;;;;4977542;28;20270;-76
2023/07/18 05:41:10;;;;;;;6.68;6.00;;;26.40;99.90;;;;;;4975332;28;20201;-78
2023/07/18 05:43:37;;;;;;;6.60;6.00;;;26.40;99.90;;;;;;4973653;28;20720;-76
2023/07/18 05:46:04;;;;;;;6.88;6.15;;;26.40;99.90;;;;;;4972183;28;20252;-76
2023/07/18 05:48:31;;;;;;;6.47;5.50;;;26.50;99.90;;;;;;4981052;28;20295;-76
2023/07/18 05:50:58;;;;;;;6.78;6.15;;;26.60;99.90;;;;;;4982763;28;20214;-77
2023/07/18 05:53:25;;;;;;;9.25;6.57;;;26.60;99.90;;;;;;4979441;28;20620;-76
2023/07/18 05:55:53;;;;;;;8.73;6.97;;;26.70;99.90;;;;;;4981719;28;20952;-76
2023/07/18 05:58:21;;;;;;;7.60;6.80;;;26.60;99.90;;;;;;4975351;28;20209;-76
2023/07/18 06:00:48;;;;;;;8.10;7.30;;;26.50;99.90;;;;;;4979418;28;20229;-76
2023/07/18 06:03:15;;;;;;;9.63;7.60;;;26.40;99.90;;;;;;4976251;28;20711;-76
2023/07/18 06:05:46;;;;;;;8.38;7.35;;;26.30;99.90;;;;;;4985082;28;20252;-75
2023/07/18 06:08:13;;;;;;;8.63;7.47;;;26.30;99.90;;;;;;4980708;28;20319;-76
2023/07/18 06:10:40;;;;;;;7.47;6.78;;;26.30;99.90;;;;;;4983056;28;20283;-76
2023/07/18 06:13:06;;;;;;;8.55;6.47;;;26.30;99.90;;;;;;4988767;28;20221;-75
2023/07/18 06:15:35;;;;;;;7.90;7.07;;;26.30;99.90;;;;;;4989016;28;20293;-76
2023/07/18 06:18:02;;;;;;;7.80;7.00;;;26.40;99.90;;;;;;4985536;28;20861;-76
2023/07/18 06:20:29;;;;;;;7.20;6.55;;;26.50;99.90;;;;;;4990954;28;20322;-76
2023/07/18 06:22:56;;;;;;;6.88;6.20;;;26.60;99.90;;;;;;4990113;28;20305;-75
2023/07/18 06:25:23;;;;;;;8.70;6.75;;;26.70;99.90;;;;;;4987899;28;20209;-76
2023/07/18 06:27:50;;;;;;;7.90;6.82;;;26.70;99.90;;;;;;4989375;28;20231;-76
2023/07/18 06:30:17;;;;;;;9.02;7.60;;;26.70;99.90;;;;;;4985521;28;20201;-77
2023/07/18 06:32:45;;;;;;;8.15;7.45;;;26.80;99.90;;;;;;4974995;28;20819;-78
2023/07/18 06:35:12;;;;;;;9.57;6.93;;;26.80;99.90;;;;;;4975971;28;20562;-77
2023/07/18 06:37:41;;;;;;;7.80;6.95;;;26.90;99.90;;;;;;4986957;28;20244;-76
2023/07/18 06:40:11;;;;;;;9.98;7.15;;;27.00;99.90;;;;;;4981292;28;20786;-78
2023/07/18 06:42:38;;;;;;;8.18;7.35;;;27.00;99.90;;;;;;4977620;28;20200;-76
2023/07/18 06:45:06;;;;;;;7.63;6.93;;;27.20;99.90;;;;;;4980422;28;20252;-76
2023/07/18 06:47:33;;;;;;;7.78;6.80;;;27.30;99.90;;;;;;4979305;28;20260;-76
2023/07/18 06:50:02;;;;;;;9.45;7.50;;;27.40;99.90;;;;;;4979435;28;20302;-77
2023/07/18 06:52:28;;;;;;;8.80;6.53;;;27.50;99.90;;;;;;4981130;28;20233;-77
2023/07/18 06:54:56;;;;;;;9.02;7.88;;;27.60;99.90;;;;;;4981161;28;20720;-76
2023/07/18 06:57:22;;;;;;;8.02;7.22;;;27.70;99.90;;;;;;4970143;28;20311;-76
2023/07/18 06:59:50;;;;;;;10.20;7.85;;;27.80;99.90;;;;;;4972999;28;20259;-78
2023/07/18 07:02:17;;;;;;;8.25;7.53;;;27.90;99.90;;;;;;4975028;28;20197;-78
2023/07/18 07:04:44;;;;;;;7.60;7.00;;;27.90;99.90;;;;;;4978914;28;20278;-77
2023/07/18 07:07:12;;;;;;;8.20;7.40;;;27.90;99.90;;;;;;4987649;28;20229;-77
2023/07/18 07:09:39;;;;;;;7.53;6.82;;;28.10;99.90;;;;;;4984232;28;20297;-78
2023/07/18 07:12:07;;;;;;;8.18;7.38;;;28.30;99.90;;;;;;4984079;28;20289;-77
2023/07/18 07:14:34;;;;;;;10.13;8.23;;;28.50;99.90;;;;;;4980403;28;20288;-77
2023/07/18 07:17:01;;;;;;;7.88;6.63;;;28.60;99.90;;;;;;4987011;28;20609;-78
2023/07/18 07:19:28;;;;;;;8.98;7.35;;;28.70;99.90;;;;;;4974263;28;20289;-77
2023/07/18 07:21:55;;;;;;;7.85;6.93;;;28.80;99.90;;;;;;4980503;28;20343;-78
2023/07/18 07:24:23;;;;;;;9.68;8.18;;;28.90;99.90;;;;;;4973173;28;20288;-78
2023/07/18 07:26:50;;;;;;;9.07;7.70;;;28.80;99.90;;;;;;4974974;28;20221;-77
2023/07/18 07:29:19;;;;;;;7.80;7.10;;;28.90;99.90;;;;;;4968224;28;20710;-77
2023/07/18 07:31:46;;;;;;;8.80;7.90;;;29.00;99.90;;;;;;4970984;28;20234;-77
2023/07/18 07:34:13;;;;;;;9.50;8.30;;;29.00;99.90;;;;;;4976278;28;20198;-77
2023/07/18 07:36:40;;;;;;;8.48;7.68;;;29.00;99.90;;;;;;4979793;28;20328;-78
2023/07/18 07:39:07;;;;;;;9.02;7.70;;;29.10;99.90;;;;;;4976457;28;20229;-78
2023/07/18 07:41:35;;;;;;;8.20;7.40;;;29.20;99.90;;;;;;4977620;28;20232;-77
2023/07/18 07:44:02;;;;;;;9.90;7.93;;;29.30;99.90;;;;;;4976003;28;20302;-79
2023/07/18 07:46:29;;;;;;;10.57;8.23;;;29.60;99.90;;;;;;4970407;28;21003;-78
2023/07/18 07:48:56;;;;;;;9.10;7.75;;;29.80;99.90;;;;;;4978342;28;20276;-77
2023/07/18 07:51:23;;;;;;;8.65;7.75;;;29.70;99.90;;;;;;4974171;28;20204;-77
2023/07/18 07:53:50;;;;;;;8.48;7.28;;;29.60;99.90;;;;;;4975463;28;20201;-78
2023/07/18 07:56:17;;;;;;;9.43;8.43;;;29.80;99.90;;;;;;4975052;28;20254;-78
2023/07/18 07:58:45;;;;;;;8.88;7.82;;;29.90;99.90;;;;;;4976491;28;20209;-76
2023/07/18 08:01:12;;;;;;;8.80;7.90;;;30.00;99.90;;;;;;4972260;28;20643;-78
2023/07/18 08:03:39;;;;;;;8.27;7.57;;;30.10;99.90;;;;;;4976441;28;20292;-79
2023/07/18 08:06:06;;;;;;;9.45;8.55;;;30.10;99.90;;;;;;4970973;28;20765;-77
2023/07/18 08:08:33;;;;;;;7.93;7.13;;;30.20;99.90;;;;;;4974069;28;20205;-77
2023/07/18 08:11:00;;;;;;;9.20;8.30;;;30.30;99.90;;;;;;4968545;28;20489;-77
2023/07/18 08:13:28;;;;;;;8.82;8.02;;;30.40;99.90;;;;;;4970382;28;20279;-77
2023/07/18 08:15:56;;;;;;;8.57;7.78;;;30.50;99.90;;;;;;4978803;28;20246;-78
2023/07/18 08:18:23;;;;;;;9.40;7.90;;;30.50;99.90;;;;;;4969703;28;20216;-78
2023/07/18 08:20:50;;;;;;;9.38;8.13;;;30.40;99.90;;;;;;4966537;28;20292;-77
2023/07/18 08:23:17;;;;;;;9.73;8.27;;;30.40;99.90;;;;;;4973923;28;20521;-77
2023/07/18 08:25:44;;;;;;;9.57;8.10;;;30.40;99.90;;;;;;4973846;28;20225;-78
2023/07/18 08:28:11;;;;;;;9.15;8.05;;;30.30;99.90;;;;;;4971906;28;20206;-77
2023/07/18 08:30:41;;;;;;;8.57;7.45;;;30.40;99.90;;;;;;4979513;28;20280;-76
2023/07/18 08:33:09;;;;;;;7.85;7.15;;;30.40;99.90;;;;;;4976137;28;20312;-76
2023/07/18 08:35:37;;;;;;;11.68;8.10;;;30.70;99.90;;;;;;4970092;28;20204;-77
2023/07/18 08:38:04;;;;;;;9.82;8.88;;;30.80;99.90;;;;;;4976339;28;20224;-78
2023/07/18 08:40:32;;;;;;;9.45;8.38;;;30.90;99.90;;;;;;4968543;28;20436;-76
2023/07/18 08:42:59;;;;;;;9.05;8.25;;;30.90;99.90;;;;;;4970451;28;20207;-79
2023/07/18 08:45:30;;;;;;;9.77;8.18;;;31.00;99.90;;;;;;4972834;28;20308;-81
2023/07/18 08:47:57;;;;;;;11.27;9.10;;;31.20;99.90;;;;;;4976300;28;21082;-76
2023/07/18 08:50:26;;;;;;;9.27;8.45;;;31.20;99.90;;;;;;4972524;28;20835;-79
2023/07/18 08:52:54;;;;;;;9.40;8.50;;;31.00;99.90;;;;;;4974888;28;20205;-80
2023/07/18 08:55:21;;;;;;;10.90;9.13;;;30.90;99.90;;;;;;4972861;28;20255;-80
2023/07/18 08:57:50;;;;;;;9.15;7.78;;;31.10;99.90;;;;;;4976031;28;20224;-79
2023/07/18 09:00:20;;;;;;;9.82;8.02;;;31.10;99.90;;;;;;4974909;28;20594;-79
2023/07/18 09:02:48;;;;;;;9.38;8.48;;;31.20;99.90;;;;;;4972636;28;20602;-77
2023/07/18 09:05:30;;;;;;;11.80;8.63;;;31.20;99.90;;;;;;4970689;28;20908;-79
2023/07/18 09:07:58;;;;;;;8.70;7.75;;;31.10;99.90;;;;;;4969169;28;20559;-77
2023/07/18 09:10:25;;;;;;;8.98;8.27;;;31.20;99.90;;;;;;4969930;28;20284;-78
2023/07/18 09:12:52;;;;;;;9.68;8.60;;;31.50;99.90;;;;;;4975786;28;20201;-76
2023/07/18 09:15:20;;;;;;;8.50;7.80;;;31.60;99.90;;;;;;4980602;28;20229;-80
2023/07/18 09:17:49;;;;;;;9.93;8.50;;;31.60;99.90;;;;;;4976848;28;20295;-77
2023/07/18 09:20:18;;;;;;;9.07;7.07;;;31.60;99.90;;;;;;4975684;28;20209;-80
2023/07/18 09:22:46;;;;;;;9.32;8.48;;;31.70;99.90;;;;;;4967901;28;20213;-79
2023/07/18 09:25:15;;;;;;;8.65;7.90;;;31.60;99.90;;;;;;4976867;28;20324;-81
2023/07/18 09:27:43;;;;;;;8.55;7.72;;;31.80;99.90;;;;;;4978996;28;20289;-79
2023/07/18 09:30:10;;;;;;;12.00;8.52;;;31.90;99.90;;;;;;4974454;28;20275;-76
2023/07/18 09:32:38;;;;;;;8.15;7.45;;;31.80;99.90;;;;;;4967032;28;20968;-77
2023/07/18 09:35:05;;;;;;;8.65;7.85;;;31.70;99.90;;;;;;4971939;28;20202;-76
2023/07/18 09:37:44;;;;;;;9.00;8.20;;;32.00;99.90;;;;;;4977153;28;20319;-76
2023/07/18 09:40:14;;;;;;;8.57;7.70;;;32.10;99.90;;;;;;4972964;28;20765;-76
2023/07/18 09:42:44;;;;;;;10.18;8.30;;;32.20;99.90;;;;;;4972164;28;20201;-76
2023/07/18 09:45:12;;;;;;;8.70;7.90;;;32.00;99.90;;;;;;4973142;28;20346;-76
2023/07/18 09:47:41;;;;;;;9.35;8.45;;;31.90;99.90;;;;;;4967648;28;20549;-76
2023/07/18 09:50:09;;;;;;;7.95;7.13;;;32.00;99.90;;;;;;4975741;28;20204;-76
2023/07/18 09:52:40;;;;;;;8.50;7.70;;;32.00;99.90;;;;;;4972380;28;20213;-78
2023/07/18 09:55:09;;;;;;;8.07;7.28;;;32.20;99.90;;;;;;4972403;28;20249;-76
2023/07/18 09:57:42;;;;;;;8.60;7.70;;;32.30;99.90;;;;;;4972491;28;20229;-77
2023/07/18 10:00:11;;;;;;;8.18;7.47;;;32.50;99.90;;;;;;4968506;28;20237;-76
2023/07/18 10:02:40;;;;;;;8.10;7.30;;;32.70;99.90;;;;;;4969205;28;20201;-77
2023/07/18 10:05:09;;;;;;;8.80;7.60;;;32.70;99.90;;;;;;4973427;28;20216;-77
2023/07/18 10:07:37;;;;;;;7.47;6.75;;;32.60;99.90;;;;;;4972981;28;20220;-77
2023/07/18 10:10:07;;;;;;;7.40;6.70;;;32.60;99.90;;;;;;4977450;28;20204;-79
2023/07/18 10:12:37;;;;;;;9.88;7.32;;;32.60;99.90;;;;;;4975904;28;20203;-79
2023/07/18 10:15:05;;;;;;;8.30;7.45;;;32.70;99.90;;;;;;4978127;28;20211;-78
2023/07/18 10:17:36;;;;;;;7.93;7.22;;;32.80;99.90;;;;;;4981998;28;20665;-77
2023/07/18 10:20:14;;;;;;;7.40;6.70;;;32.80;99.90;;;;;;4980129;28;20225;-77
2023/07/18 10:22:49;;;;;;;7.28;6.57;;;32.60;99.90;;;;;;4975227;28;20287;-77
2023/07/18 10:25:19;;;;;;;8.82;6.20;;;32.80;99.90;;;;;;4984923;28;20312;-79
2023/07/18 10:27:49;;;;;;;7.70;6.90;;;33.00;99.90;;;;;;4978805;28;20937;-79
2023/07/18 10:30:19;;;;;;;7.45;6.70;;;33.00;99.90;;;;;;4980109;28;20240;-78
2023/07/18 10:32:54;;;;;;;7.22;6.50;;;32.90;99.90;;;;;;4976491;28;20205;-78
2023/07/18 10:35:24;;;;;;;6.97;5.95;;;32.80;99.90;;;;;;4975596;28;20201;-77
2023/07/18 10:37:53;;;;;;;7.10;6.50;;;33.00;99.90;;;;;;4974786;28;20567;-77
2023/07/18 10:40:35;;;;;;;7.68;7.00;;;32.90;99.90;;;;;;4965547;28;20210;-78
2023/07/18 10:43:05;;;;;;;7.88;6.95;;;33.00;99.90;;;;;;4974875;28;20202;-80
2023/07/18 10:45:37;;;;;;;7.63;6.88;;;32.80;99.90;;;;;;4971713;28;20304;-78
2023/07/18 10:48:11;;;;;;;8.85;6.78;;;32.90;99.90;;;;;;4971054;28;20218;-77
2023/07/18 10:50:39;;;;;;;11.57;7.32;;;32.90;99.90;;;;;;4966650;28;20197;-79
2023/07/18 10:53:06;;;;;;;8.02;7.28;;;32.90;99.90;;;;;;4965847;28;20208;-77
2023/07/18 10:55:33;;;;;;;7.80;7.10;;;32.90;99.90;;;;;;4972736;28;20268;-77
2023/07/18 10:58:00;;;;;;;7.65;7.00;;;32.90;99.90;;;;;;4970389;28;20300;-78
2023/07/18 11:00:28;;;;;;;7.80;6.85;;;32.90;99.90;;;;;;4970879;28;20842;-76
2023/07/18 11:02:55;;;;;;;8.50;7.60;;;33.00;99.90;;;;;;4972161;28;20297;-79
2023/07/18 11:05:25;;;;;;;8.77;7.88;;;33.00;99.90;;;;;;4975866;28;20854;-77
2023/07/18 11:07:52;;;;;;;8.55;7.53;;;32.90;99.90;;;;;;4979232;28;20325;-77
2023/07/18 11:10:20;;;;;;;8.25;7.45;;;32.90;99.90;;;;;;4982597;28;20413;-77
2023/07/18 11:12:47;;;;;;;8.25;7.07;;;33.00;99.90;;;;;;4985762;28;20216;-81
2023/07/18 11:15:14;;;;;;;9.52;7.47;;;32.90;99.90;;;;;;4982709;28;20821;-78
2023/07/18 11:17:44;;;;;;;8.25;7.40;;;32.90;99.90;;;;;;4982413;28;20244;-78
2023/07/18 11:20:12;;;;;;;7.75;7.05;;;33.00;99.90;;;;;;4978159;28;20297;-80
2023/07/18 11:22:40;;;;;;;8.20;7.30;;;33.20;99.90;;;;;;4981066;28;20210;-79
2023/07/18 11:25:08;;;;;;;7.90;6.82;;;33.30;99.90;;;;;;4982451;28;20261;-79
2023/07/18 11:27:36;;;;;;;7.82;6.63;;;33.40;99.90;;;;;;4976771;28;20232;-79
2023/07/18 11:30:08;;;;;;;7.53;6.30;;;33.60;99.90;;;;;;4978473;28;20588;-79
2023/07/18 11:32:39;;;;;;;8.13;7.22;;;33.80;99.90;;;;;;4978672;28;20786;-79
2023/07/18 11:35:10;;;;;;;6.95;6.25;;;33.80;99.90;;;;;;4978088;28;20205;-79
2023/07/18 11:37:38;;;;;;;7.18;6.47;;;33.90;99.90;;;;;;4977240;28;20795;-77
2023/07/18 11:40:06;;;;;;;8.20;6.70;;;33.90;99.90;;;;;;4974555;28;20201;-77
2023/07/18 11:42:44;;;;;;;7.57;6.78;;;34.10;99.90;;;;;;4978654;28;20304;-79
2023/07/18 11:45:11;;;;;;;11.25;7.18;;;34.20;99.90;;;;;;4978653;28;20360;-78
2023/07/18 11:47:43;;;;;;;7.28;5.88;;;34.20;99.90;;;;;;4972325;28;20252;-78
2023/07/18 11:50:12;;;;;;;6.70;6.03;;;34.50;99.90;;;;;;4979219;28;20296;-78
2023/07/18 11:52:40;;;;;;;9.48;6.45;;;34.80;99.90;;;;;;4972671;28;20296;-77
2023/07/18 11:55:08;;;;;;;11.98;6.28;;;35.00;99.90;;;;;;4972629;28;20289;-81
2023/07/18 11:57:35;;;;;;;8.82;6.50;;;34.90;99.90;;;;;;4970199;28;20244;-79
2023/07/18 12:00:04;;;;;;;9.30;6.68;;;34.70;99.90;;;;;;4984323;28;20208;-78
2023/07/18 12:02:31;;;;;;;9.18;7.20;;;34.40;99.90;;;;;;4977157;28;20233;-78
2023/07/18 12:04:58;;;;;;;9.73;6.55;;;34.30;99.90;;;;;;4977134;28;20569;-78
2023/07/18 12:07:26;;;;;;;11.50;7.05;;;34.20;99.90;;;;;;4985334;28;20298;-78
2023/07/18 12:09:53;;;;;;;10.55;6.88;;;34.20;99.90;;;;;;4975794;28;20284;-79
2023/07/18 12:12:21;;;;;;;8.23;6.30;;;34.20;99.90;;;;;;4975291;28;20202;-79
2023/07/18 12:14:48;;;;;;;7.50;6.72;;;34.20;99.90;;;;;;4984134;28;20303;-80
2023/07/18 12:17:15;;;;;;;8.13;5.45;;;34.20;99.90;;;;;;4979343;28;20416;-78
2023/07/18 12:19:43;;;;;;;9.50;6.35;;;34.30;99.90;;;;;;4979493;28;20888;-78
2023/07/18 12:22:10;;;;;;;8.25;5.97;;;34.40;99.90;;;;;;4980657;28;20298;-78
2023/07/18 12:24:38;;;;;;;7.63;6.35;;;34.30;99.90;;;;;;4986058;28;20708;-79
2023/07/18 12:27:06;;;;;;;7.93;6.28;;;34.20;99.90;;;;;;4979744;28;20227;-79
2023/07/18 12:29:33;;;;;;;8.82;6.72;;;34.20;99.90;;;;;;4973368;28;20213;-79
2023/07/18 12:32:01;;;;;;;8.38;6.10;;;34.20;99.90;;;;;;4975095;28;20208;-78
2023/07/18 12:34:28;;;;;;;9.50;6.93;;;34.20;99.90;;;;;;4977220;28;20193;-79
2023/07/18 12:36:55;;;;;;;9.25;7.18;;;34.00;99.90;;;;;;4978279;28;20308;-77
2023/07/18 12:39:22;;;;;;;7.35;5.95;;;34.00;99.90;;;;;;4972374;28;20267;-78
2023/07/18 12:41:51;;;;;;;8.15;6.03;;;34.20;99.90;;;;;;4971330;28;20229;-79
2023/07/18 12:44:19;;;;;;;10.35;7.20;;;34.50;99.90;;;;;;4970489;28;20305;-79
2023/07/18 12:46:46;;;;;;;10.85;6.30;;;34.70;99.90;;;;;;4981002;28;20231;-79
2023/07/18 12:49:14;;;;;;;8.40;6.72;;;34.80;99.90;;;;;;4978134;28;20317;-80